createdAt,value
2022-12-19T00:00:29.279Z,28.10
2022-12-19T00:02:57.010Z,31.02
2022-12-19T00:05:24.888Z,30.92
2022-12-19T00:07:53.688Z,29.83
2022-12-19T00:10:22.724Z,33.13
2022-12-19T00:12:50.441Z,30.45
2022-12-19T00:15:18.366Z,30.65
2022-12-19T00:17:45.986Z,30.08
2022-12-19T00:20:15.962Z,33.22
2022-12-19T00:22:46.557Z,32.72
2022-12-19T00:25:14.307Z,31.67
2022-12-19T00:27:43.852Z,30.92
2022-12-19T00:30:12.921Z,32.10
2022-12-19T00:32:40.550Z,29.60
2022-12-19T00:35:08.625Z,31.63
2022-12-19T00:37:36.322Z,32.55
2022-12-19T00:40:07.914Z,31.83
2022-12-19T00:42:35.639Z,30.90
2022-12-19T00:45:05.094Z,32.92
2022-12-19T00:47:32.876Z,32.33
2022-12-19T00:50:00.478Z,31.80
2022-12-19T00:52:28.156Z,31.67
2022-12-19T00:54:57.666Z,31.48
2022-12-19T00:57:25.512Z,31.50
2022-12-19T00:59:53.239Z,32.40
2022-12-19T01:02:22.371Z,32.63
2022-12-19T01:04:50.074Z,32.72
2022-12-19T01:07:17.702Z,31.55
2022-12-19T01:09:45.331Z,33.05
2022-12-19T01:12:31.728Z,33.63
2022-12-19T01:15:04.207Z,33.35
2022-12-19T01:17:40.776Z,32.45
2022-12-19T01:20:13.572Z,33.33
2022-12-19T01:22:41.195Z,31.27
2022-12-19T01:25:09.083Z,31.42
2022-12-19T01:27:36.801Z,30.70
2022-12-19T01:30:06.042Z,31.45
2022-12-19T01:32:36.748Z,31.80
2022-12-19T01:35:04.777Z,33.35
2022-12-19T01:37:32.413Z,31.73
2022-12-19T01:40:00.021Z,30.92
2022-12-19T01:42:27.754Z,31.33
2022-12-19T01:45:05.484Z,30.70
2022-12-19T01:47:41.632Z,32.08
2022-12-19T01:50:14.977Z,31.50
2022-12-19T01:52:43.337Z,29.52
2022-12-19T01:55:12.099Z,30.73
2022-12-19T01:57:41.052Z,31.55
2022-12-19T02:00:10.328Z,32.13
2022-12-19T02:02:44.786Z,31.92
2022-12-19T02:05:12.466Z,32.15
2022-12-19T02:07:41.852Z,34.65
2022-12-19T02:10:09.988Z,32.47
2022-12-19T02:12:40.945Z,34.55
2022-12-19T02:15:10.556Z,31.33
2022-12-19T02:17:52.620Z,31.42
2022-12-19T02:20:41.579Z,31.73
2022-12-19T02:23:32.528Z,30.63
2022-12-19T02:26:21.296Z,32.17
2022-12-19T02:29:29.394Z,32.80
2022-12-19T02:32:05.714Z,31.73
2022-12-19T02:34:44.386Z,32.70
2022-12-19T02:37:18.576Z,31.90
2022-12-19T02:39:53.517Z,31.90
2022-12-19T02:42:26.836Z,33.92
2022-12-19T02:47:27.993Z,32.53
2022-12-19T02:49:55.626Z,32.08
2022-12-19T02:52:48.208Z,33.50
2022-12-19T02:55:21.259Z,32.70
2022-12-19T02:58:10.708Z,34.22
2022-12-19T03:00:48.941Z,32.63
2022-12-19T03:03:24.495Z,31.73
2022-12-19T03:06:02.174Z,33.88
2022-12-19T03:08:36.250Z,33.92
2022-12-19T03:11:07.213Z,32.08
2022-12-19T03:13:39.004Z,33.53
2022-12-19T03:16:11.000Z,33.65
2022-12-19T03:18:40.380Z,35.08
2022-12-19T03:21:12.423Z,32.60
2022-12-19T03:23:41.098Z,33.97
2022-12-19T03:26:13.458Z,33.88
2022-12-19T03:28:46.893Z,34.67
2022-12-19T03:31:17.180Z,35.20
2022-12-19T03:33:48.613Z,32.63
2022-12-19T03:36:20.995Z,34.03
2022-12-19T03:38:50.057Z,34.50
2022-12-19T03:41:41.079Z,33.53
2022-12-19T03:44:11.250Z,33.03
2022-12-19T03:46:42.462Z,36.08
2022-12-19T03:49:11.643Z,30.42
2022-12-19T03:51:45.235Z,31.50
2022-12-19T03:54:17.400Z,35.55
2022-12-19T03:56:51.592Z,30.33
2022-12-19T03:59:27.064Z,32.75
2022-12-19T04:01:56.179Z,33.55
2022-12-19T04:04:26.671Z,31.15
2022-12-19T04:06:55.716Z,33.55
2022-12-19T04:09:25.206Z,31.80
2022-12-19T04:11:55.362Z,32.30
2022-12-19T04:14:27.608Z,31.33
2022-12-19T04:17:02.759Z,31.63
2022-12-19T04:22:15.775Z,29.20
2022-12-19T04:24:45.867Z,31.02
2022-12-19T04:27:15.309Z,31.13
2022-12-19T04:29:43.765Z,31.65
2022-12-19T04:32:12.585Z,31.23
2022-12-19T04:34:43.090Z,30.88
2022-12-19T04:37:12.369Z,31.38
2022-12-19T04:39:40.149Z,29.60
2022-12-19T04:42:07.805Z,31.88
2022-12-19T04:44:35.530Z,31.98
2022-12-19T04:47:03.270Z,29.48
2022-12-19T04:49:31.131Z,30.77
2022-12-19T04:52:00.168Z,29.60
2022-12-19T04:54:30.763Z,29.13
2022-12-19T04:56:58.401Z,29.50
2022-12-19T04:59:26.580Z,31.00
2022-12-19T05:01:54.652Z,31.80
2022-12-19T05:04:22.677Z,31.15
2022-12-19T05:06:50.330Z,29.77
2022-12-19T05:09:19.378Z,30.52
2022-12-19T05:11:47.022Z,28.15
2022-12-19T05:14:15.597Z,29.00
2022-12-19T05:16:43.276Z,29.52
2022-12-19T05:19:10.962Z,29.38
2022-12-19T05:21:38.583Z,30.95
2022-12-19T05:24:07.409Z,30.67
2022-12-19T05:26:36.466Z,31.25
2022-12-19T05:29:04.187Z,28.38
2022-12-19T05:31:31.861Z,30.15
2022-12-19T05:33:59.600Z,31.13
2022-12-19T05:36:32.301Z,29.35
2022-12-19T05:39:00.392Z,29.30
2022-12-19T05:41:28.093Z,29.65
2022-12-19T05:43:57.706Z,33.08
2022-12-19T05:46:27.340Z,29.67
2022-12-19T05:49:31.567Z,31.48
2022-12-19T05:51:59.223Z,29.10
2022-12-19T05:54:27.060Z,30.60
2022-12-19T05:56:54.730Z,29.67
2022-12-19T05:59:23.996Z,29.35
2022-12-19T06:01:51.683Z,31.42
2022-12-19T06:04:19.394Z,29.75
2022-12-19T06:06:47.076Z,30.73
2022-12-19T06:09:14.719Z,29.25
2022-12-19T06:11:42.400Z,28.10
2022-12-19T06:14:10.114Z,27.88
2022-12-19T06:16:39.246Z,28.95
2022-12-19T06:19:06.938Z,29.45
2022-12-19T06:21:34.574Z,27.13
2022-12-19T06:24:02.318Z,29.15
2022-12-19T06:26:31.111Z,27.40
2022-12-19T06:28:58.904Z,26.33
2022-12-19T06:31:26.778Z,27.35
2022-12-19T06:33:56.894Z,27.17
2022-12-19T06:36:26.138Z,26.52
2022-12-19T06:38:55.295Z,27.88
2022-12-19T06:41:40.700Z,26.50
2022-12-19T06:44:12.186Z,29.35
2022-12-19T06:46:40.868Z,26.60
2022-12-19T06:49:10.886Z,27.30
2022-12-19T06:51:38.720Z,26.00
2022-12-19T06:54:07.039Z,27.15
2022-12-19T06:56:37.063Z,27.30
2022-12-19T06:59:04.946Z,26.38
2022-12-19T07:01:48.044Z,25.25
2022-12-19T07:04:22.425Z,27.00
2022-12-19T07:06:50.127Z,27.23
2022-12-19T07:09:18.259Z,28.95
2022-12-19T07:11:46.100Z,27.30
2022-12-19T07:14:13.793Z,27.55
2022-12-19T07:16:42.322Z,26.80
2022-12-19T07:19:11.015Z,30.05
2022-12-19T07:21:41.002Z,27.75
2022-12-19T07:24:09.851Z,26.85
2022-12-19T07:26:37.863Z,27.60
2022-12-19T07:29:05.853Z,25.48
2022-12-19T07:31:36.112Z,26.55
2022-12-19T07:34:04.072Z,27.00
2022-12-19T07:36:31.741Z,28.23
2022-12-19T07:39:00.752Z,26.80
2022-12-19T07:41:28.461Z,25.90
2022-12-19T07:43:56.113Z,24.73
2022-12-19T07:46:23.852Z,24.55
2022-12-19T07:48:51.683Z,27.02
2022-12-19T07:51:19.357Z,25.95
2022-12-19T07:53:47.039Z,23.63
2022-12-19T07:56:17.343Z,23.75
2022-12-19T07:58:45.625Z,24.95
2022-12-19T08:01:13.334Z,24.40
2022-12-19T08:03:40.988Z,24.17
2022-12-19T08:06:09.244Z,24.88
2022-12-19T08:08:37.782Z,22.77
2022-12-19T08:11:10.461Z,22.27
2022-12-19T08:13:45.996Z,22.30
2022-12-19T08:16:15.062Z,22.60
2022-12-19T08:18:42.936Z,22.55
2022-12-19T08:21:11.481Z,23.10
2022-12-19T08:23:39.652Z,22.50
2022-12-19T08:26:09.359Z,21.00
2022-12-19T08:28:38.055Z,21.98
2022-12-19T08:31:18.700Z,21.67
2022-12-19T08:33:47.572Z,21.17
2022-12-19T08:36:19.024Z,21.42
2022-12-19T08:38:47.541Z,20.40
2022-12-19T08:41:16.666Z,18.58
2022-12-19T08:43:49.089Z,17.20
2022-12-19T08:46:18.843Z,16.35
2022-12-19T08:48:47.095Z,17.20
2022-12-19T08:51:16.587Z,17.25
2022-12-19T08:53:46.241Z,16.95
2022-12-19T08:56:16.831Z,16.17
2022-12-19T08:58:44.800Z,15.75
2022-12-19T09:01:15.306Z,15.75
2022-12-19T09:04:05.242Z,15.13
2022-12-19T09:06:32.980Z,16.85
2022-12-19T09:09:01.035Z,21.98
2022-12-19T09:11:29.130Z,19.52
2022-12-19T09:13:58.019Z,17.42
2022-12-19T09:16:27.534Z,15.50
2022-12-19T09:18:58.769Z,15.63
2022-12-19T09:21:28.876Z,15.60
2022-12-19T09:24:03.499Z,14.95
2022-12-19T09:26:34.964Z,13.75
2022-12-19T09:29:03.635Z,15.43
2022-12-19T09:31:47.849Z,15.43
2022-12-19T09:34:20.309Z,14.13
2022-12-19T09:36:50.380Z,14.05
2022-12-19T09:39:19.242Z,14.65
2022-12-19T09:42:40.552Z,12.27
2022-12-19T09:45:32.153Z,14.25
2022-12-19T09:48:01.615Z,14.05
2022-12-19T09:50:40.483Z,13.60
2022-12-19T09:53:16.753Z,13.55
2022-12-19T09:55:46.201Z,13.25
2022-12-19T09:58:21.281Z,15.38
2022-12-19T10:00:59.853Z,17.27
2022-12-19T10:03:32.193Z,15.27
2022-12-19T10:07:11.735Z,13.65
2022-12-19T10:10:18.202Z,14.25
2022-12-19T10:12:42.984Z,14.20
2022-12-19T10:15:24.551Z,13.95
2022-12-19T10:18:13.089Z,15.35
2022-12-19T10:20:46.169Z,13.38
2022-12-19T10:23:26.080Z,16.33
2022-12-19T10:26:01.100Z,13.88
2022-12-19T10:28:47.364Z,13.77
2022-12-19T10:31:22.371Z,14.20
2022-12-19T10:33:56.924Z,13.20
2022-12-19T10:36:48.923Z,15.35
2022-12-19T10:39:23.309Z,14.88
2022-12-19T10:41:56.730Z,14.82
2022-12-19T10:44:28.727Z,18.33
2022-12-19T10:46:56.436Z,23.20
2022-12-19T10:49:27.213Z,18.42
2022-12-19T10:51:59.984Z,25.08
2022-12-19T10:54:39.403Z,21.48
2022-12-19T10:57:25.435Z,20.85
2022-12-19T11:00:01.978Z,16.65
2022-12-19T11:02:41.699Z,13.43
2022-12-19T11:05:24.632Z,12.80
2022-12-19T11:08:04.854Z,12.32
2022-12-19T11:10:49.863Z,12.18
2022-12-19T11:18:11.873Z,13.75
2022-12-19T11:19:41.645Z,15.55
2022-12-19T11:23:41.784Z,12.98
2022-12-19T11:29:45.633Z,12.60
2022-12-19T11:30:38.165Z,11.43
2022-12-19T11:30:43.544Z,13.23
2022-12-19T11:34:06.264Z,11.77
2022-12-19T11:36:38.743Z,11.25
2022-12-19T11:39:13.029Z,11.32
2022-12-19T11:41:47.238Z,11.07
2022-12-19T11:44:27.391Z,11.18
2022-12-19T11:47:03.779Z,10.98
2022-12-19T11:49:37.362Z,11.88
2022-12-19T11:52:54.316Z,12.32
2022-12-19T11:55:08.452Z,10.55
2022-12-19T11:57:39.198Z,10.85
2022-12-19T12:00:13.816Z,11.52
2022-12-19T12:03:05.900Z,11.35
2022-12-19T12:05:44.167Z,11.45
2022-12-19T12:10:51.148Z,11.73
2022-12-19T12:16:22.270Z,11.35
2022-12-19T12:24:02.405Z,10.80
2022-12-19T12:31:11.788Z,11.50
2022-12-19T12:31:16.284Z,11.65
2022-12-19T12:31:38.257Z,11.45
2022-12-19T12:31:52.362Z,11.48
2022-12-19T12:31:54.264Z,12.25
2022-12-19T12:35:33.438Z,12.25
2022-12-19T12:38:36.029Z,11.00
2022-12-19T12:41:16.252Z,11.25
2022-12-19T12:44:01.719Z,10.90
2022-12-19T12:46:35.333Z,12.23
2022-12-19T12:49:05.908Z,12.60
2022-12-19T12:51:35.242Z,11.63
2022-12-19T12:54:07.510Z,11.48
2022-12-19T12:56:36.656Z,11.00
2022-12-19T12:59:22.821Z,11.38
2022-12-19T13:01:52.551Z,11.57
2022-12-19T13:04:28.366Z,10.50
2022-12-19T13:07:25.759Z,11.23
2022-12-19T13:10:06.864Z,10.85
2022-12-19T13:12:52.356Z,11.68
2022-12-19T13:15:44.220Z,11.77
2022-12-19T13:18:31.700Z,11.82
2022-12-19T13:21:03.095Z,11.40
2022-12-19T13:23:50.207Z,12.13
2022-12-19T13:26:33.427Z,11.05
2022-12-19T13:29:27.648Z,11.07
2022-12-19T13:32:10.822Z,12.00
2022-12-19T13:34:39.235Z,11.57
2022-12-19T13:39:48.418Z,11.05
2022-12-19T13:40:34.495Z,11.60
2022-12-19T13:43:34.047Z,11.25
2022-12-19T13:46:03.997Z,10.70
2022-12-19T13:48:34.852Z,10.77
2022-12-19T13:51:07.877Z,11.40
2022-12-19T13:53:37.635Z,11.07
2022-12-19T13:56:12.624Z,11.60
2022-12-19T13:58:47.699Z,11.45
2022-12-19T14:01:21.219Z,11.82
2022-12-19T14:03:51.306Z,11.38
2022-12-19T14:06:22.626Z,11.38
2022-12-19T14:09:58.588Z,14.30
2022-12-19T14:13:44.343Z,12.02
2022-12-19T14:15:02.144Z,12.05
2022-12-19T14:17:38.609Z,12.15
2022-12-19T14:22:03.526Z,12.38
2022-12-19T14:23:06.718Z,11.50
2022-12-19T14:28:15.196Z,11.18
2022-12-19T14:28:39.096Z,10.85
2022-12-19T14:31:09.892Z,10.13
2022-12-19T14:33:58.913Z,11.93
2022-12-19T14:36:32.839Z,13.10
2022-12-19T14:39:23.967Z,14.20
2022-12-19T14:42:11.665Z,13.50
2022-12-19T14:52:35.611Z,12.23
2022-12-19T14:52:51.579Z,11.13
2022-12-19T14:54:16.868Z,11.55
2022-12-19T14:54:55.085Z,12.05
2022-12-19T14:56:29.917Z,12.55
2022-12-19T14:59:01.178Z,12.48
2022-12-19T15:01:31.097Z,13.00
2022-12-19T15:04:48.011Z,13.23
2022-12-19T15:07:09.060Z,13.45
2022-12-19T15:11:03.851Z,13.60
2022-12-19T15:14:47.323Z,12.65
2022-12-19T15:16:00.748Z,12.05
2022-12-19T15:18:38.192Z,11.10
2022-12-19T15:21:08.372Z,11.95
2022-12-19T15:23:36.288Z,13.23
2022-12-19T15:26:08.551Z,12.73
2022-12-19T15:28:42.384Z,13.77
2022-12-19T15:31:35.491Z,13.73
2022-12-19T15:34:34.088Z,13.45
2022-12-19T15:37:03.263Z,14.38
2022-12-19T15:39:30.992Z,15.77
2022-12-19T15:42:01.180Z,15.05
2022-12-19T15:44:33.242Z,15.77
2022-12-19T15:47:03.329Z,14.25
2022-12-19T15:49:31.584Z,13.88
2022-12-19T15:51:59.682Z,13.45
2022-12-19T15:57:30.438Z,15.32
2022-12-19T15:59:59.282Z,14.95
2022-12-19T16:02:56.340Z,14.05
2022-12-19T16:05:17.462Z,14.40
2022-12-19T16:07:45.975Z,15.40
2022-12-19T16:10:15.147Z,15.27
2022-12-19T16:12:48.103Z,15.70
2022-12-19T16:15:21.011Z,15.32
2022-12-19T16:17:50.062Z,16.40
2022-12-19T16:20:20.083Z,16.45
2022-12-19T16:22:47.817Z,15.75
2022-12-19T16:25:16.475Z,15.75
2022-12-19T16:27:45.333Z,16.17
2022-12-19T16:30:23.754Z,17.75
2022-12-19T16:32:53.339Z,14.63
2022-12-19T16:35:34.505Z,16.40
2022-12-19T16:38:10.688Z,17.05
2022-12-19T16:40:38.609Z,17.00
2022-12-19T16:43:08.637Z,16.60
2022-12-19T16:45:36.375Z,17.50
2022-12-19T16:48:19.052Z,17.42
2022-12-19T16:50:47.012Z,16.67
2022-12-19T16:53:15.090Z,16.17
2022-12-19T16:55:43.368Z,14.85
2022-12-19T16:58:15.540Z,15.93
2022-12-19T17:00:43.487Z,15.68
2022-12-19T17:03:27.234Z,14.63
2022-12-19T17:05:55.271Z,14.35
2022-12-19T17:08:23.808Z,17.77
2022-12-19T17:10:51.697Z,19.95
2022-12-19T17:13:19.706Z,18.90
2022-12-19T17:15:54.321Z,18.95
2022-12-19T17:18:29.347Z,20.45
2022-12-19T17:20:57.080Z,17.25
2022-12-19T17:23:26.592Z,18.08
2022-12-19T17:25:55.372Z,17.35
2022-12-19T17:28:23.680Z,17.17
2022-12-19T17:30:54.350Z,18.00
2022-12-19T17:33:24.183Z,15.20
2022-12-19T17:35:53.608Z,18.58
2022-12-19T17:38:21.336Z,21.33
2022-12-19T17:40:49.073Z,16.90
2022-12-19T17:43:16.832Z,17.13
2022-12-19T17:45:44.997Z,16.25
2022-12-19T17:48:22.075Z,17.08
2022-12-19T17:50:49.925Z,15.77
2022-12-19T17:53:19.031Z,15.93
2022-12-19T17:55:46.769Z,14.63
2022-12-19T17:58:14.622Z,20.65
2022-12-19T18:00:43.829Z,19.25
2022-12-19T18:03:19.345Z,15.90
2022-12-19T18:05:47.370Z,14.52
2022-12-19T18:08:25.367Z,14.25
2022-12-19T18:10:53.301Z,16.48
2022-12-19T18:13:21.495Z,18.25
2022-12-19T18:15:49.360Z,19.73
2022-12-19T18:18:21.679Z,18.27
2022-12-19T18:20:50.177Z,18.88
2022-12-19T18:23:19.439Z,18.17
2022-12-19T18:25:49.156Z,14.60
2022-12-19T18:28:17.336Z,14.57
2022-12-19T18:30:46.888Z,13.18
2022-12-19T18:33:17.498Z,15.18
2022-12-19T18:35:48.418Z,15.45
2022-12-19T18:38:18.624Z,15.30
2022-12-19T18:40:48.855Z,16.70
2022-12-19T18:43:17.695Z,15.13
2022-12-19T18:45:48.137Z,15.13
2022-12-19T18:48:20.508Z,14.77
2022-12-19T18:50:48.196Z,14.95
2022-12-19T18:53:19.622Z,13.07
2022-12-19T18:55:49.118Z,12.13
2022-12-19T18:58:16.826Z,12.73
2022-12-19T19:00:45.011Z,13.35
2022-12-19T19:03:16.737Z,14.13
2022-12-19T19:05:44.723Z,12.85
2022-12-19T19:08:17.043Z,12.23
2022-12-19T19:10:46.424Z,13.93
2022-12-19T19:13:16.444Z,16.10
2022-12-19T19:15:48.802Z,21.98
2022-12-19T19:18:20.884Z,20.77
2022-12-19T19:20:54.349Z,15.95
2022-12-19T19:23:30.608Z,17.13
2022-12-19T19:25:58.337Z,16.50
2022-12-19T19:28:27.390Z,16.67
2022-12-19T19:30:56.093Z,16.25
2022-12-19T19:33:26.281Z,15.20
2022-12-19T19:35:57.613Z,13.55
2022-12-19T19:38:25.571Z,14.85
2022-12-19T19:40:53.328Z,13.80
2022-12-19T19:43:21.002Z,15.23
2022-12-19T19:45:51.462Z,14.60
2022-12-19T19:48:19.351Z,14.52
2022-12-19T19:50:48.081Z,18.10
2022-12-19T19:53:15.719Z,17.23
2022-12-19T19:55:45.866Z,16.73
2022-12-19T19:58:13.516Z,16.95
2022-12-19T20:00:41.428Z,16.33
2022-12-19T20:03:12.857Z,17.02
2022-12-19T20:05:42.937Z,18.85
2022-12-19T20:08:10.717Z,20.95
2022-12-19T20:10:38.695Z,20.10
2022-12-19T20:13:06.419Z,15.98
2022-12-19T20:15:34.711Z,14.68
2022-12-19T20:18:02.410Z,14.02
2022-12-19T20:20:31.438Z,12.88
2022-12-19T20:22:59.167Z,13.80
2022-12-19T20:25:26.902Z,17.60
2022-12-19T20:27:54.767Z,18.50
2022-12-19T20:30:22.520Z,16.08
2022-12-19T20:32:50.270Z,14.07
2022-12-19T20:35:17.939Z,13.65
2022-12-19T20:37:46.988Z,14.73
2022-12-19T20:40:14.874Z,15.20
2022-12-19T20:42:42.609Z,16.92
2022-12-19T20:45:10.881Z,13.63
2022-12-19T20:47:38.658Z,14.05
2022-12-19T20:50:08.088Z,14.02
2022-12-19T20:52:35.780Z,15.88
2022-12-19T20:55:05.480Z,18.08
2022-12-19T20:57:33.266Z,19.73
2022-12-19T21:00:00.946Z,16.23
2022-12-19T21:02:36.351Z,14.15
2022-12-19T21:05:16.521Z,15.27
2022-12-19T21:07:44.643Z,15.38
2022-12-19T21:10:13.860Z,13.30
2022-12-19T21:12:47.362Z,12.68
2022-12-19T21:15:15.754Z,13.93
2022-12-19T21:17:43.439Z,12.68
2022-12-19T21:20:12.005Z,12.50
2022-12-19T21:22:39.730Z,12.43
2022-12-19T21:25:08.509Z,12.13
2022-12-19T21:27:37.742Z,11.52
2022-12-19T21:30:07.300Z,11.60
2022-12-19T21:32:36.488Z,11.88
2022-12-19T21:35:04.347Z,10.77
2022-12-19T21:37:32.144Z,11.85
2022-12-19T21:39:59.898Z,12.50
2022-12-19T21:42:27.588Z,12.07
2022-12-19T21:44:56.706Z,14.02
2022-12-19T21:47:24.518Z,14.10
2022-12-19T21:49:52.357Z,13.70
2022-12-19T21:52:19.980Z,12.85
2022-12-19T21:54:47.675Z,14.32
2022-12-19T21:57:15.350Z,13.18
2022-12-19T21:59:43.005Z,12.43
2022-12-19T22:02:12.186Z,12.82
2022-12-19T22:04:39.968Z,11.13
2022-12-19T22:07:07.806Z,10.45
2022-12-19T22:09:35.604Z,10.48
2022-12-19T22:12:03.364Z,10.15
2022-12-19T22:14:31.035Z,10.38
2022-12-19T22:16:59.860Z,10.27
2022-12-19T22:19:29.011Z,10.65
2022-12-19T22:21:56.720Z,10.27
2022-12-19T22:24:25.435Z,10.07
2022-12-19T22:26:53.506Z,9.65
2022-12-19T22:29:21.186Z,10.35
2022-12-19T22:31:49.581Z,9.68
2022-12-19T22:34:19.419Z,10.23
2022-12-19T22:36:49.633Z,8.75
2022-12-19T22:39:19.955Z,9.57
2022-12-19T22:41:47.745Z,9.20
2022-12-19T22:44:18.199Z,10.07
2022-12-19T22:46:46.038Z,9.90
2022-12-19T22:49:13.938Z,9.68
2022-12-19T22:51:42.185Z,9.57
2022-12-19T22:54:12.247Z,9.80
2022-12-19T23:02:58.216Z,14.02
2022-12-19T23:05:25.997Z,14.77
2022-12-19T23:07:53.761Z,15.10
2022-12-19T23:10:21.487Z,15.02
2022-12-19T23:12:49.440Z,15.45
2022-12-19T23:15:17.126Z,18.73
2022-12-19T23:17:44.818Z,19.45
2022-12-19T23:20:14.604Z,20.73
2022-12-19T23:22:42.258Z,13.80
2022-12-19T23:25:11.092Z,12.90
2022-12-19T23:27:38.740Z,11.70
2022-12-19T23:30:07.467Z,10.80
2022-12-19T23:32:35.087Z,10.43
2022-12-19T23:35:02.745Z,9.32
2022-12-19T23:37:31.727Z,8.38
2022-12-19T23:39:59.361Z,8.25
2022-12-19T23:42:27.096Z,8.70
2022-12-19T23:44:54.927Z,8.85
2022-12-19T23:47:22.615Z,7.90
2022-12-19T23:49:50.358Z,8.05
2022-12-19T23:52:18.085Z,8.15
2022-12-19T23:54:47.329Z,8.23
2022-12-19T23:57:15.134Z,9.20
2022-12-19T23:59:42.816Z,8.35
